Terminal Aerodrome Forecast
Issued by NWS

Home | Current Version | Previous Version | Text Only | Print | Product List | Glossary On
Versions: 1 2 3 4 5 6 7 8 9 10 11 12 13 14
964
FTUS46 KMTR 261737
TAFSNS
TAF
KSNS 261737Z 2618/2718 00000KT P6SM OVC100
     FM262000 22006KT P6SM BKN050 OVC100
     FM270300 26006KT P6SM -RA SCT008 BKN012 OVC030
     FM270800 VRB03KT P6SM VCSH OVC025
     FM271600 27003KT P6SM SCT025 BKN100=

USA.gov is the U.S. government's official web portal to all federal, state and local government web resources and services.